sensor_id;sensor_type;location;lat;lon;timestamp;P1;durP1;ratioP1;P2;durP2;ratioP2
23230;SDS011;11784;49.818;8.632;2024-02-15T00:01:40;3.15;;;1.83;;
23230;SDS011;11784;49.818;8.632;2024-02-15T00:04:06;3.30;;;1.50;;
23230;SDS011;11784;49.818;8.632;2024-02-15T00:06:32;4.00;;;1.60;;
23230;SDS011;11784;49.818;8.632;2024-02-15T00:08:58;6.93;;;1.52;;
23230;SDS011;11784;49.818;8.632;2024-02-15T00:11:24;5.22;;;1.67;;
23230;SDS011;11784;49.818;8.632;2024-02-15T00:13:50;5.40;;;1.85;;
23230;SDS011;11784;49.818;8.632;2024-02-15T00:16:16;3.35;;;1.58;;
23230;SDS011;11784;49.818;8.632;2024-02-15T00:18:42;4.47;;;1.52;;
23230;SDS011;11784;49.818;8.632;2024-02-15T00:21:08;3.90;;;1.67;;
23230;SDS011;11784;49.818;8.632;2024-02-15T00:23:33;2.30;;;1.52;;
23230;SDS011;11784;49.818;8.632;2024-02-15T00:26:00;2.85;;;1.58;;
23230;SDS011;11784;49.818;8.632;2024-02-15T00:28:26;3.58;;;1.35;;
23230;SDS011;11784;49.818;8.632;2024-02-15T00:30:52;5.13;;;1.77;;
23230;SDS011;11784;49.818;8.632;2024-02-15T00:33:18;4.22;;;1.90;;
23230;SDS011;11784;49.818;8.632;2024-02-15T00:35:44;5.78;;;1.85;;
23230;SDS011;11784;49.818;8.632;2024-02-15T00:38:10;3.70;;;1.77;;
23230;SDS011;11784;49.818;8.632;2024-02-15T00:40:35;3.95;;;1.65;;
23230;SDS011;11784;49.818;8.632;2024-02-15T00:43:01;5.60;;;1.70;;
23230;SDS011;11784;49.818;8.632;2024-02-15T00:45:27;4.00;;;1.60;;
23230;SDS011;11784;49.818;8.632;2024-02-15T00:47:53;5.30;;;1.63;;
23230;SDS011;11784;49.818;8.632;2024-02-15T00:50:21;3.28;;;1.60;;
23230;SDS011;11784;49.818;8.632;2024-02-15T00:52:46;3.78;;;1.65;;
23230;SDS011;11784;49.818;8.632;2024-02-15T00:55:12;5.40;;;1.73;;
23230;SDS011;11784;49.818;8.632;2024-02-15T00:57:38;8.13;;;2.00;;
23230;SDS011;11784;49.818;8.632;2024-02-15T01:00:05;2.83;;;1.63;;
23230;SDS011;11784;49.818;8.632;2024-02-15T01:02:34;7.60;;;2.10;;
23230;SDS011;11784;49.818;8.632;2024-02-15T01:05:00;4.68;;;1.70;;
23230;SDS011;11784;49.818;8.632;2024-02-15T01:07:26;5.22;;;1.55;;
23230;SDS011;11784;49.818;8.632;2024-02-15T01:09:52;5.32;;;1.75;;
23230;SDS011;11784;49.818;8.632;2024-02-15T01:12:19;4.85;;;1.80;;
23230;SDS011;11784;49.818;8.632;2024-02-15T01:14:45;3.50;;;1.83;;
23230;SDS011;11784;49.818;8.632;2024-02-15T01:17:12;5.38;;;2.10;;
23230;SDS011;11784;49.818;8.632;2024-02-15T01:19:38;5.72;;;1.88;;
23230;SDS011;11784;49.818;8.632;2024-02-15T01:22:04;8.52;;;2.40;;
23230;SDS011;11784;49.818;8.632;2024-02-15T01:24:31;4.07;;;2.10;;
23230;SDS011;11784;49.818;8.632;2024-02-15T01:26:57;3.15;;;1.70;;
23230;SDS011;11784;49.818;8.632;2024-02-15T01:29:23;6.50;;;2.10;;
23230;SDS011;11784;49.818;8.632;2024-02-15T01:31:50;3.90;;;1.92;;
23230;SDS011;11784;49.818;8.632;2024-02-15T01:34:16;4.88;;;2.08;;
23230;SDS011;11784;49.818;8.632;2024-02-15T01:36:42;4.68;;;1.98;;
23230;SDS011;11784;49.818;8.632;2024-02-15T01:39:08;3.92;;;2.10;;
23230;SDS011;11784;49.818;8.632;2024-02-15T01:41:35;2.42;;;1.77;;
23230;SDS011;11784;49.818;8.632;2024-02-15T01:44:00;6.18;;;2.20;;
23230;SDS011;11784;49.818;8.632;2024-02-15T01:46:26;5.55;;;1.63;;
23230;SDS011;11784;49.818;8.632;2024-02-15T01:48:54;4.47;;;1.90;;
23230;SDS011;11784;49.818;8.632;2024-02-15T01:51:21;6.20;;;1.52;;
23230;SDS011;11784;49.818;8.632;2024-02-15T01:53:48;6.18;;;2.08;;
23230;SDS011;11784;49.818;8.632;2024-02-15T01:56:14;5.32;;;1.83;;
23230;SDS011;11784;49.818;8.632;2024-02-15T01:58:42;4.82;;;1.63;;
23230;SDS011;11784;49.818;8.632;2024-02-15T02:01:09;6.72;;;2.00;;
23230;SDS011;11784;49.818;8.632;2024-02-15T02:03:35;5.25;;;1.80;;
23230;SDS011;11784;49.818;8.632;2024-02-15T02:06:01;3.50;;;1.80;;
23230;SDS011;11784;49.818;8.632;2024-02-15T02:08:28;2.22;;;1.63;;
23230;SDS011;11784;49.818;8.632;2024-02-15T02:10:54;3.47;;;2.00;;
23230;SDS011;11784;49.818;8.632;2024-02-15T02:13:20;5.53;;;1.70;;
23230;SDS011;11784;49.818;8.632;2024-02-15T02:15:46;7.95;;;1.73;;
23230;SDS011;11784;49.818;8.632;2024-02-15T02:18:12;3.08;;;1.80;;
23230;SDS011;11784;49.818;8.632;2024-02-15T02:20:39;6.40;;;1.88;;
23230;SDS011;11784;49.818;8.632;2024-02-15T02:23:10;3.53;;;1.80;;
23230;SDS011;11784;49.818;8.632;2024-02-15T02:25:39;5.13;;;2.05;;
23230;SDS011;11784;49.818;8.632;2024-02-15T02:28:07;4.85;;;1.67;;
23230;SDS011;11784;49.818;8.632;2024-02-15T02:30:34;3.30;;;1.40;;
23230;SDS011;11784;49.818;8.632;2024-02-15T02:33:00;3.85;;;1.75;;
23230;SDS011;11784;49.818;8.632;2024-02-15T02:35:26;3.70;;;1.48;;
23230;SDS011;11784;49.818;8.632;2024-02-15T02:37:54;3.00;;;1.50;;
23230;SDS011;11784;49.818;8.632;2024-02-15T02:40:21;3.40;;;1.67;;
23230;SDS011;11784;49.818;8.632;2024-02-15T02:45:13;3.78;;;1.80;;
23230;SDS011;11784;49.818;8.632;2024-02-15T02:47:39;4.47;;;1.38;;
23230;SDS011;11784;49.818;8.632;2024-02-15T02:50:05;4.40;;;1.70;;
23230;SDS011;11784;49.818;8.632;2024-02-15T02:52:31;6.85;;;1.40;;
23230;SDS011;11784;49.818;8.632;2024-02-15T02:54:58;3.95;;;1.67;;
23230;SDS011;11784;49.818;8.632;2024-02-15T02:57:24;4.78;;;1.90;;
23230;SDS011;11784;49.818;8.632;2024-02-15T02:59:51;2.83;;;1.35;;
23230;SDS011;11784;49.818;8.632;2024-02-15T03:02:17;7.57;;;1.90;;
23230;SDS011;11784;49.818;8.632;2024-02-15T03:04:43;4.20;;;1.60;;
23230;SDS011;11784;49.818;8.632;2024-02-15T03:07:09;2.67;;;1.50;;
23230;SDS011;11784;49.818;8.632;2024-02-15T03:09:35;3.05;;;1.40;;
23230;SDS011;11784;49.818;8.632;2024-02-15T03:12:02;4.43;;;1.75;;
23230;SDS011;11784;49.818;8.632;2024-02-15T03:14:28;4.88;;;1.52;;
23230;SDS011;11784;49.818;8.632;2024-02-15T03:16:55;4.32;;;1.52;;
23230;SDS011;11784;49.818;8.632;2024-02-15T03:19:21;6.95;;;1.77;;
23230;SDS011;11784;49.818;8.632;2024-02-15T03:21:48;5.55;;;1.52;;
23230;SDS011;11784;49.818;8.632;2024-02-15T03:24:14;5.13;;;1.63;;
23230;SDS011;11784;49.818;8.632;2024-02-15T03:26:40;6.60;;;1.80;;
23230;SDS011;11784;49.818;8.632;2024-02-15T03:29:07;4.28;;;1.20;;
23230;SDS011;11784;49.818;8.632;2024-02-15T03:31:34;4.00;;;1.60;;
23230;SDS011;11784;49.818;8.632;2024-02-15T03:34:02;3.03;;;1.52;;
23230;SDS011;11784;49.818;8.632;2024-02-15T03:36:28;5.30;;;1.33;;
23230;SDS011;11784;49.818;8.632;2024-02-15T03:38:54;5.07;;;1.60;;
23230;SDS011;11784;49.818;8.632;2024-02-15T03:41:21;3.85;;;1.70;;
23230;SDS011;11784;49.818;8.632;2024-02-15T03:43:47;4.22;;;1.50;;
23230;SDS011;11784;49.818;8.632;2024-02-15T03:46:13;5.53;;;1.90;;
23230;SDS011;11784;49.818;8.632;2024-02-15T03:48:43;8.55;;;1.67;;
23230;SDS011;11784;49.818;8.632;2024-02-15T03:51:09;7.53;;;2.10;;
23230;SDS011;11784;49.818;8.632;2024-02-15T03:53:35;2.85;;;1.63;;
23230;SDS011;11784;49.818;8.632;2024-02-15T03:56:03;5.57;;;1.85;;
23230;SDS011;11784;49.818;8.632;2024-02-15T03:58:29;4.53;;;1.35;;
23230;SDS011;11784;49.818;8.632;2024-02-15T04:00:57;8.98;;;1.80;;
23230;SDS011;11784;49.818;8.632;2024-02-15T04:03:23;5.00;;;1.30;;
23230;SDS011;11784;49.818;8.632;2024-02-15T04:05:49;4.85;;;1.77;;
23230;SDS011;11784;49.818;8.632;2024-02-15T04:08:15;5.72;;;1.90;;
23230;SDS011;11784;49.818;8.632;2024-02-15T04:10:42;4.20;;;1.65;;
23230;SDS011;11784;49.818;8.632;2024-02-15T04:13:08;3.50;;;1.48;;
23230;SDS011;11784;49.818;8.632;2024-02-15T04:15:34;7.07;;;1.58;;
23230;SDS011;11784;49.818;8.632;2024-02-15T04:18:00;6.63;;;1.50;;
23230;SDS011;11784;49.818;8.632;2024-02-15T04:20:26;3.42;;;1.20;;
23230;SDS011;11784;49.818;8.632;2024-02-15T04:22:54;3.92;;;1.83;;
23230;SDS011;11784;49.818;8.632;2024-02-15T04:25:21;1.98;;;1.05;;
23230;SDS011;11784;49.818;8.632;2024-02-15T04:27:52;10.30;;;1.45;;
23230;SDS011;11784;49.818;8.632;2024-02-15T04:30:18;1.95;;;1.08;;
23230;SDS011;11784;49.818;8.632;2024-02-15T04:32:45;4.10;;;1.30;;
23230;SDS011;11784;49.818;8.632;2024-02-15T04:35:12;4.60;;;1.70;;
23230;SDS011;11784;49.818;8.632;2024-02-15T04:37:39;8.85;;;1.40;;
23230;SDS011;11784;49.818;8.632;2024-02-15T04:40:05;3.80;;;1.27;;
23230;SDS011;11784;49.818;8.632;2024-02-15T04:42:38;4.30;;;1.50;;
23230;SDS011;11784;49.818;8.632;2024-02-15T04:45:05;4.38;;;1.40;;
23230;SDS011;11784;49.818;8.632;2024-02-15T04:47:33;3.85;;;1.52;;
23230;SDS011;11784;49.818;8.632;2024-02-15T04:49:59;5.38;;;1.50;;
23230;SDS011;11784;49.818;8.632;2024-02-15T04:52:25;3.55;;;1.50;;
23230;SDS011;11784;49.818;8.632;2024-02-15T04:54:51;4.78;;;1.42;;
23230;SDS011;11784;49.818;8.632;2024-02-15T04:57:19;5.47;;;2.03;;
23230;SDS011;11784;49.818;8.632;2024-02-15T04:59:45;3.42;;;1.75;;
23230;SDS011;11784;49.818;8.632;2024-02-15T05:02:13;6.40;;;1.83;;
23230;SDS011;11784;49.818;8.632;2024-02-15T05:04:39;6.13;;;2.08;;
23230;SDS011;11784;49.818;8.632;2024-02-15T05:07:07;5.47;;;1.70;;
23230;SDS011;11784;49.818;8.632;2024-02-15T05:09:33;4.97;;;1.55;;
23230;SDS011;11784;49.818;8.632;2024-02-15T05:11:59;6.82;;;1.83;;
23230;SDS011;11784;49.818;8.632;2024-02-15T05:14:26;5.78;;;1.85;;
23230;SDS011;11784;49.818;8.632;2024-02-15T05:16:52;2.80;;;1.60;;
23230;SDS011;11784;49.818;8.632;2024-02-15T05:19:18;4.70;;;1.58;;
23230;SDS011;11784;49.818;8.632;2024-02-15T05:21:44;7.18;;;1.90;;
23230;SDS011;11784;49.818;8.632;2024-02-15T05:24:14;7.20;;;2.15;;
23230;SDS011;11784;49.818;8.632;2024-02-15T05:26:41;6.40;;;1.52;;
23230;SDS011;11784;49.818;8.632;2024-02-15T05:29:13;5.20;;;2.03;;
23230;SDS011;11784;49.818;8.632;2024-02-15T05:31:40;3.90;;;1.50;;
23230;SDS011;11784;49.818;8.632;2024-02-15T05:34:06;4.55;;;1.88;;
23230;SDS011;11784;49.818;8.632;2024-02-15T05:36:33;4.25;;;1.52;;
23230;SDS011;11784;49.818;8.632;2024-02-15T05:38:59;7.40;;;2.10;;
23230;SDS011;11784;49.818;8.632;2024-02-15T05:41:27;4.78;;;1.70;;
23230;SDS011;11784;49.818;8.632;2024-02-15T05:43:54;4.18;;;1.40;;
23230;SDS011;11784;49.818;8.632;2024-02-15T05:46:22;2.58;;;1.25;;
23230;SDS011;11784;49.818;8.632;2024-02-15T05:48:48;4.03;;;1.70;;
23230;SDS011;11784;49.818;8.632;2024-02-15T05:51:15;5.63;;;1.45;;
23230;SDS011;11784;49.818;8.632;2024-02-15T05:53:41;5.15;;;1.30;;
23230;SDS011;11784;49.818;8.632;2024-02-15T05:56:07;1.90;;;1.27;;
23230;SDS011;11784;49.818;8.632;2024-02-15T05:58:34;3.00;;;1.30;;
23230;SDS011;11784;49.818;8.632;2024-02-15T06:01:01;5.65;;;1.30;;
23230;SDS011;11784;49.818;8.632;2024-02-15T06:03:30;3.75;;;1.30;;
23230;SDS011;11784;49.818;8.632;2024-02-15T06:05:58;2.10;;;1.27;;
23230;SDS011;11784;49.818;8.632;2024-02-15T06:08:28;2.03;;;1.23;;
23230;SDS011;11784;49.818;8.632;2024-02-15T06:10:57;3.60;;;1.23;;
23230;SDS011;11784;49.818;8.632;2024-02-15T06:13:23;3.15;;;1.30;;
23230;SDS011;11784;49.818;8.632;2024-02-15T06:15:49;6.30;;;1.20;;
23230;SDS011;11784;49.818;8.632;2024-02-15T06:18:23;3.47;;;1.42;;
23230;SDS011;11784;49.818;8.632;2024-02-15T06:20:52;4.53;;;1.35;;
23230;SDS011;11784;49.818;8.632;2024-02-15T06:23:19;4.00;;;1.58;;
23230;SDS011;11784;49.818;8.632;2024-02-15T06:25:50;3.90;;;1.50;;
23230;SDS011;11784;49.818;8.632;2024-02-15T06:28:18;4.15;;;1.40;;
23230;SDS011;11784;49.818;8.632;2024-02-15T06:31:02;4.50;;;1.42;;
23230;SDS011;11784;49.818;8.632;2024-02-15T06:33:47;7.15;;;2.50;;
23230;SDS011;11784;49.818;8.632;2024-02-15T06:36:32;3.38;;;1.20;;
23230;SDS011;11784;49.818;8.632;2024-02-15T06:39:16;5.07;;;1.98;;
23230;SDS011;11784;49.818;8.632;2024-02-15T06:42:01;4.57;;;1.50;;
23230;SDS011;11784;49.818;8.632;2024-02-15T06:44:27;5.53;;;2.63;;
23230;SDS011;11784;49.818;8.632;2024-02-15T06:46:53;3.08;;;1.35;;
23230;SDS011;11784;49.818;8.632;2024-02-15T06:49:19;4.30;;;1.48;;
23230;SDS011;11784;49.818;8.632;2024-02-15T06:51:48;3.15;;;1.40;;
23230;SDS011;11784;49.818;8.632;2024-02-15T06:54:14;4.05;;;1.73;;
23230;SDS011;11784;49.818;8.632;2024-02-15T06:56:40;4.38;;;1.70;;
23230;SDS011;11784;49.818;8.632;2024-02-15T06:59:06;3.17;;;1.60;;
23230;SDS011;11784;49.818;8.632;2024-02-15T07:01:32;4.28;;;1.40;;
23230;SDS011;11784;49.818;8.632;2024-02-15T07:03:59;5.75;;;1.70;;
23230;SDS011;11784;49.818;8.632;2024-02-15T07:06:25;3.05;;;1.55;;
23230;SDS011;11784;49.818;8.632;2024-02-15T07:08:52;6.97;;;1.27;;
23230;SDS011;11784;49.818;8.632;2024-02-15T07:11:21;6.60;;;1.75;;
23230;SDS011;11784;49.818;8.632;2024-02-15T07:13:47;3.38;;;1.92;;
23230;SDS011;11784;49.818;8.632;2024-02-15T07:16:13;3.25;;;1.55;;
23230;SDS011;11784;49.818;8.632;2024-02-15T07:18:40;6.28;;;1.48;;
23230;SDS011;11784;49.818;8.632;2024-02-15T07:21:06;4.15;;;1.40;;
23230;SDS011;11784;49.818;8.632;2024-02-15T07:23:38;4.88;;;1.88;;
23230;SDS011;11784;49.818;8.632;2024-02-15T07:26:06;3.75;;;1.30;;
23230;SDS011;11784;49.818;8.632;2024-02-15T07:28:32;4.55;;;1.17;;
23230;SDS011;11784;49.818;8.632;2024-02-15T07:30:58;4.82;;;1.48;;
23230;SDS011;11784;49.818;8.632;2024-02-15T07:33:25;4.07;;;1.30;;
23230;SDS011;11784;49.818;8.632;2024-02-15T07:35:51;4.13;;;1.40;;
23230;SDS011;11784;49.818;8.632;2024-02-15T07:38:18;4.63;;;1.38;;
23230;SDS011;11784;49.818;8.632;2024-02-15T07:40:44;3.58;;;1.58;;
23230;SDS011;11784;49.818;8.632;2024-02-15T07:43:10;2.47;;;1.40;;
23230;SDS011;11784;49.818;8.632;2024-02-15T07:45:36;4.32;;;1.25;;
23230;SDS011;11784;49.818;8.632;2024-02-15T07:48:03;3.58;;;1.40;;
23230;SDS011;11784;49.818;8.632;2024-02-15T07:50:31;3.78;;;1.23;;
23230;SDS011;11784;49.818;8.632;2024-02-15T07:52:57;4.03;;;1.15;;
23230;SDS011;11784;49.818;8.632;2024-02-15T07:55:23;2.72;;;0.93;;
23230;SDS011;11784;49.818;8.632;2024-02-15T07:57:53;5.30;;;1.42;;
23230;SDS011;11784;49.818;8.632;2024-02-15T08:00:20;3.15;;;1.40;;
23230;SDS011;11784;49.818;8.632;2024-02-15T08:02:46;5.60;;;1.45;;
23230;SDS011;11784;49.818;8.632;2024-02-15T08:05:12;3.28;;;1.10;;
23230;SDS011;11784;49.818;8.632;2024-02-15T08:07:43;3.58;;;1.35;;
23230;SDS011;11784;49.818;8.632;2024-02-15T08:10:10;6.43;;;1.43;;
23230;SDS011;11784;49.818;8.632;2024-02-15T08:12:42;4.85;;;1.10;;
23230;SDS011;11784;49.818;8.632;2024-02-15T08:15:09;2.25;;;1.00;;
23230;SDS011;11784;49.818;8.632;2024-02-15T08:17:36;3.13;;;1.30;;
23230;SDS011;11784;49.818;8.632;2024-02-15T08:20:04;3.35;;;1.10;;
23230;SDS011;11784;49.818;8.632;2024-02-15T08:22:32;1.88;;;1.00;;
23230;SDS011;11784;49.818;8.632;2024-02-15T08:24:58;4.00;;;1.30;;
23230;SDS011;11784;49.818;8.632;2024-02-15T08:27:23;4.05;;;1.35;;
23230;SDS011;11784;49.818;8.632;2024-02-15T08:29:49;3.58;;;1.02;;
23230;SDS011;11784;49.818;8.632;2024-02-15T08:32:15;3.00;;;1.20;;
23230;SDS011;11784;49.818;8.632;2024-02-15T08:34:41;2.97;;;1.08;;
23230;SDS011;11784;49.818;8.632;2024-02-15T08:37:07;2.83;;;1.40;;
23230;SDS011;11784;49.818;8.632;2024-02-15T08:39:34;3.28;;;1.88;;
23230;SDS011;11784;49.818;8.632;2024-02-15T08:42:00;3.58;;;1.27;;
23230;SDS011;11784;49.818;8.632;2024-02-15T08:44:26;4.05;;;1.58;;
23230;SDS011;11784;49.818;8.632;2024-02-15T08:46:53;3.80;;;1.60;;
23230;SDS011;11784;49.818;8.632;2024-02-15T08:49:20;3.90;;;1.55;;
23230;SDS011;11784;49.818;8.632;2024-02-15T08:51:47;4.65;;;1.45;;
23230;SDS011;11784;49.818;8.632;2024-02-15T08:54:13;4.18;;;1.40;;
23230;SDS011;11784;49.818;8.632;2024-02-15T08:56:38;4.15;;;1.50;;
23230;SDS011;11784;49.818;8.632;2024-02-15T08:59:04;4.63;;;1.40;;
23230;SDS011;11784;49.818;8.632;2024-02-15T09:01:30;3.05;;;1.45;;
23230;SDS011;11784;49.818;8.632;2024-02-15T09:03:57;5.70;;;1.80;;
23230;SDS011;11784;49.818;8.632;2024-02-15T09:06:23;3.90;;;1.58;;
23230;SDS011;11784;49.818;8.632;2024-02-15T09:08:49;3.10;;;1.63;;
23230;SDS011;11784;49.818;8.632;2024-02-15T09:11:15;2.40;;;1.20;;
23230;SDS011;11784;49.818;8.632;2024-02-15T09:13:41;4.40;;;1.33;;
23230;SDS011;11784;49.818;8.632;2024-02-15T09:16:07;2.05;;;1.17;;
23230;SDS011;11784;49.818;8.632;2024-02-15T09:18:33;2.30;;;1.45;;
23230;SDS011;11784;49.818;8.632;2024-02-15T09:20:59;4.20;;;1.38;;
23230;SDS011;11784;49.818;8.632;2024-02-15T09:23:25;3.28;;;1.27;;
23230;SDS011;11784;49.818;8.632;2024-02-15T09:25:51;4.15;;;1.52;;
23230;SDS011;11784;49.818;8.632;2024-02-15T09:28:17;3.35;;;1.30;;
23230;SDS011;11784;49.818;8.632;2024-02-15T09:30:47;4.35;;;1.33;;
23230;SDS011;11784;49.818;8.632;2024-02-15T09:33:16;5.28;;;1.30;;
23230;SDS011;11784;49.818;8.632;2024-02-15T09:35:42;5.55;;;1.40;;
23230;SDS011;11784;49.818;8.632;2024-02-15T09:38:08;2.88;;;1.30;;
23230;SDS011;11784;49.818;8.632;2024-02-15T09:40:34;4.15;;;1.45;;
23230;SDS011;11784;49.818;8.632;2024-02-15T09:43:00;5.38;;;1.38;;
23230;SDS011;11784;49.818;8.632;2024-02-15T09:45:26;4.47;;;1.85;;
23230;SDS011;11784;49.818;8.632;2024-02-15T09:47:52;5.93;;;1.95;;
23230;SDS011;11784;49.818;8.632;2024-02-15T09:50:19;3.28;;;1.08;;
23230;SDS011;11784;49.818;8.632;2024-02-15T09:55:11;2.50;;;1.40;;
23230;SDS011;11784;49.818;8.632;2024-02-15T09:57:41;2.85;;;1.10;;
23230;SDS011;11784;49.818;8.632;2024-02-15T10:00:08;3.55;;;1.40;;
23230;SDS011;11784;49.818;8.632;2024-02-15T10:02:38;3.95;;;1.60;;
23230;SDS011;11784;49.818;8.632;2024-02-15T10:05:05;1.30;;;0.90;;
23230;SDS011;11784;49.818;8.632;2024-02-15T10:07:36;3.17;;;1.10;;
23230;SDS011;11784;49.818;8.632;2024-02-15T10:12:47;2.95;;;1.20;;
23230;SDS011;11784;49.818;8.632;2024-02-15T10:15:33;2.15;;;1.30;;
23230;SDS011;11784;49.818;8.632;2024-02-15T10:18:00;1.85;;;1.00;;
23230;SDS011;11784;49.818;8.632;2024-02-15T10:20:26;4.38;;;1.27;;
23230;SDS011;11784;49.818;8.632;2024-02-15T10:25:26;3.03;;;1.00;;
23230;SDS011;11784;49.818;8.632;2024-02-15T10:28:02;2.10;;;0.85;;
23230;SDS011;11784;49.818;8.632;2024-02-15T10:30:31;3.17;;;1.30;;
23230;SDS011;11784;49.818;8.632;2024-02-15T10:32:57;3.55;;;1.17;;
23230;SDS011;11784;49.818;8.632;2024-02-15T10:35:23;3.47;;;1.20;;
23230;SDS011;11784;49.818;8.632;2024-02-15T10:37:50;2.67;;;1.05;;
23230;SDS011;11784;49.818;8.632;2024-02-15T10:40:22;3.80;;;1.48;;
23230;SDS011;11784;49.818;8.632;2024-02-15T10:42:50;5.13;;;1.52;;
23230;SDS011;11784;49.818;8.632;2024-02-15T10:45:17;3.38;;;1.17;;
23230;SDS011;11784;49.818;8.632;2024-02-15T10:47:44;4.45;;;1.27;;
23230;SDS011;11784;49.818;8.632;2024-02-15T10:50:12;2.35;;;1.08;;
23230;SDS011;11784;49.818;8.632;2024-02-15T10:52:43;1.48;;;1.05;;
23230;SDS011;11784;49.818;8.632;2024-02-15T10:55:10;5.68;;;1.23;;
23230;SDS011;11784;49.818;8.632;2024-02-15T10:57:39;5.82;;;1.40;;
23230;SDS011;11784;49.818;8.632;2024-02-15T11:00:05;2.30;;;1.02;;
23230;SDS011;11784;49.818;8.632;2024-02-15T11:02:42;3.53;;;1.05;;
23230;SDS011;11784;49.818;8.632;2024-02-15T11:05:11;6.25;;;1.40;;
23230;SDS011;11784;49.818;8.632;2024-02-15T11:07:39;4.50;;;1.20;;
23230;SDS011;11784;49.818;8.632;2024-02-15T11:10:06;3.95;;;1.00;;
23230;SDS011;11784;49.818;8.632;2024-02-15T11:12:33;6.15;;;1.10;;
23230;SDS011;11784;49.818;8.632;2024-02-15T11:14:59;4.45;;;1.00;;
23230;SDS011;11784;49.818;8.632;2024-02-15T11:20:45;2.67;;;1.08;;
23230;SDS011;11784;49.818;8.632;2024-02-15T11:23:09;2.67;;;0.77;;
23230;SDS011;11784;49.818;8.632;2024-02-15T11:25:36;2.20;;;1.20;;
23230;SDS011;11784;49.818;8.632;2024-02-15T11:30:52;4.40;;;1.30;;
23230;SDS011;11784;49.818;8.632;2024-02-15T11:33:31;3.22;;;1.50;;
23230;SDS011;11784;49.818;8.632;2024-02-15T11:36:13;5.93;;;1.00;;
23230;SDS011;11784;49.818;8.632;2024-02-15T11:38:39;4.20;;;0.93;;
23230;SDS011;11784;49.818;8.632;2024-02-15T11:41:09;2.60;;;1.02;;
23230;SDS011;11784;49.818;8.632;2024-02-15T11:46:11;4.28;;;1.00;;
23230;SDS011;11784;49.818;8.632;2024-02-15T11:48:42;3.42;;;0.80;;
23230;SDS011;11784;49.818;8.632;2024-02-15T11:51:08;3.47;;;0.70;;
23230;SDS011;11784;49.818;8.632;2024-02-15T11:53:36;3.53;;;0.75;;
23230;SDS011;11784;49.818;8.632;2024-02-15T11:56:03;3.03;;;0.90;;
23230;SDS011;11784;49.818;8.632;2024-02-15T11:58:30;6.72;;;1.30;;
23230;SDS011;11784;49.818;8.632;2024-02-15T12:01:09;1.35;;;0.50;;
23230;SDS011;11784;49.818;8.632;2024-02-15T12:03:54;3.28;;;0.90;;
23230;SDS011;11784;49.818;8.632;2024-02-15T12:06:39;2.58;;;0.60;;
23230;SDS011;11784;49.818;8.632;2024-02-15T12:09:24;2.67;;;0.80;;
23230;SDS011;11784;49.818;8.632;2024-02-15T12:12:12;3.28;;;0.75;;
23230;SDS011;11784;49.818;8.632;2024-02-15T12:15:00;2.08;;;0.90;;
23230;SDS011;11784;49.818;8.632;2024-02-15T12:17:45;3.70;;;0.80;;
23230;SDS011;11784;49.818;8.632;2024-02-15T12:20:29;2.67;;;0.60;;
23230;SDS011;11784;49.818;8.632;2024-02-15T12:22:56;2.85;;;0.88;;
23230;SDS011;11784;49.818;8.632;2024-02-15T12:25:25;1.77;;;0.60;;
23230;SDS011;11784;49.818;8.632;2024-02-15T12:27:52;1.27;;;0.40;;
23230;SDS011;11784;49.818;8.632;2024-02-15T12:30:19;3.13;;;0.50;;
23230;SDS011;11784;49.818;8.632;2024-02-15T12:32:46;2.70;;;0.70;;
23230;SDS011;11784;49.818;8.632;2024-02-15T12:35:16;1.15;;;0.65;;
23230;SDS011;11784;49.818;8.632;2024-02-15T12:37:44;1.80;;;0.52;;
23230;SDS011;11784;49.818;8.632;2024-02-15T12:40:17;1.83;;;0.65;;
23230;SDS011;11784;49.818;8.632;2024-02-15T12:42:44;3.35;;;0.82;;
23230;SDS011;11784;49.818;8.632;2024-02-15T12:45:17;2.78;;;0.77;;
23230;SDS011;11784;49.818;8.632;2024-02-15T12:47:50;4.00;;;0.70;;
23230;SDS011;11784;49.818;8.632;2024-02-15T12:50:16;5.20;;;1.23;;
23230;SDS011;11784;49.818;8.632;2024-02-15T12:52:42;2.67;;;0.90;;
23230;SDS011;11784;49.818;8.632;2024-02-15T12:55:16;3.65;;;0.80;;
23230;SDS011;11784;49.818;8.632;2024-02-15T12:57:43;4.28;;;0.80;;
23230;SDS011;11784;49.818;8.632;2024-02-15T13:00:15;5.40;;;1.00;;
23230;SDS011;11784;49.818;8.632;2024-02-15T13:02:49;3.22;;;1.02;;
23230;SDS011;11784;49.818;8.632;2024-02-15T13:05:16;2.38;;;0.80;;
23230;SDS011;11784;49.818;8.632;2024-02-15T13:07:47;4.95;;;0.88;;
23230;SDS011;11784;49.818;8.632;2024-02-15T13:10:13;3.30;;;0.70;;
23230;SDS011;11784;49.818;8.632;2024-02-15T13:12:42;4.93;;;0.80;;
23230;SDS011;11784;49.818;8.632;2024-02-15T13:15:10;6.85;;;1.17;;
23230;SDS011;11784;49.818;8.632;2024-02-15T13:17:39;9.95;;;1.00;;
23230;SDS011;11784;49.818;8.632;2024-02-15T13:20:05;3.90;;;0.73;;
23230;SDS011;11784;49.818;8.632;2024-02-15T13:22:36;0.93;;;0.52;;
23230;SDS011;11784;49.818;8.632;2024-02-15T13:25:04;3.85;;;0.82;;
23230;SDS011;11784;49.818;8.632;2024-02-15T13:27:32;5.43;;;1.10;;
23230;SDS011;11784;49.818;8.632;2024-02-15T13:29:58;4.20;;;0.90;;
23230;SDS011;11784;49.818;8.632;2024-02-15T13:32:24;2.67;;;0.75;;
23230;SDS011;11784;49.818;8.632;2024-02-15T13:34:50;2.72;;;0.75;;
23230;SDS011;11784;49.818;8.632;2024-02-15T13:37:17;4.78;;;1.20;;
23230;SDS011;11784;49.818;8.632;2024-02-15T13:39:43;3.85;;;0.88;;
23230;SDS011;11784;49.818;8.632;2024-02-15T13:42:10;3.03;;;1.05;;
23230;SDS011;11784;49.818;8.632;2024-02-15T13:44:37;3.08;;;0.70;;
23230;SDS011;11784;49.818;8.632;2024-02-15T13:47:03;6.82;;;1.02;;
23230;SDS011;11784;49.818;8.632;2024-02-15T13:49:30;2.17;;;0.70;;
23230;SDS011;11784;49.818;8.632;2024-02-15T13:51:56;3.80;;;0.82;;
23230;SDS011;11784;49.818;8.632;2024-02-15T13:54:27;3.65;;;0.80;;
23230;SDS011;11784;49.818;8.632;2024-02-15T13:56:53;2.92;;;0.90;;
23230;SDS011;11784;49.818;8.632;2024-02-15T13:59:19;2.88;;;0.80;;
23230;SDS011;11784;49.818;8.632;2024-02-15T14:01:45;2.40;;;0.80;;
23230;SDS011;11784;49.818;8.632;2024-02-15T14:04:12;2.92;;;0.90;;
23230;SDS011;11784;49.818;8.632;2024-02-15T14:06:38;2.15;;;0.77;;
23230;SDS011;11784;49.818;8.632;2024-02-15T14:09:07;3.17;;;0.70;;
23230;SDS011;11784;49.818;8.632;2024-02-15T14:11:36;1.98;;;1.10;;
23230;SDS011;11784;49.818;8.632;2024-02-15T14:14:02;1.02;;;0.70;;
23230;SDS011;11784;49.818;8.632;2024-02-15T14:16:28;2.88;;;0.60;;
23230;SDS011;11784;49.818;8.632;2024-02-15T14:18:54;5.18;;;1.02;;
23230;SDS011;11784;49.818;8.632;2024-02-15T14:21:20;3.58;;;1.15;;
23230;SDS011;11784;49.818;8.632;2024-02-15T14:23:46;3.40;;;0.80;;
23230;SDS011;11784;49.818;8.632;2024-02-15T14:26:12;2.83;;;1.27;;
23230;SDS011;11784;49.818;8.632;2024-02-15T14:28:39;3.20;;;1.10;;
23230;SDS011;11784;49.818;8.632;2024-02-15T14:31:06;5.45;;;2.25;;
23230;SDS011;11784;49.818;8.632;2024-02-15T14:33:51;9.82;;;3.20;;
23230;SDS011;11784;49.818;8.632;2024-02-15T14:36:19;13.57;;;5.00;;
23230;SDS011;11784;49.818;8.632;2024-02-15T14:38:45;13.25;;;5.13;;
23230;SDS011;11784;49.818;8.632;2024-02-15T14:41:12;8.75;;;3.60;;
23230;SDS011;11784;49.818;8.632;2024-02-15T14:43:38;9.07;;;3.65;;
23230;SDS011;11784;49.818;8.632;2024-02-15T14:46:04;8.20;;;3.10;;
23230;SDS011;11784;49.818;8.632;2024-02-15T14:48:31;4.70;;;2.00;;
23230;SDS011;11784;49.818;8.632;2024-02-15T14:50:57;6.93;;;1.65;;
23230;SDS011;11784;49.818;8.632;2024-02-15T14:53:23;4.38;;;1.08;;
23230;SDS011;11784;49.818;8.632;2024-02-15T14:55:49;3.17;;;1.10;;
23230;SDS011;11784;49.818;8.632;2024-02-15T14:58:16;2.95;;;0.82;;
23230;SDS011;11784;49.818;8.632;2024-02-15T15:00:43;2.60;;;1.15;;
23230;SDS011;11784;49.818;8.632;2024-02-15T15:03:12;3.55;;;0.73;;
23230;SDS011;11784;49.818;8.632;2024-02-15T15:05:41;4.30;;;1.00;;
23230;SDS011;11784;49.818;8.632;2024-02-15T15:08:26;2.65;;;0.80;;
23230;SDS011;11784;49.818;8.632;2024-02-15T15:11:10;2.42;;;0.70;;